Time;durP1;ratioP1;P1;durP2;ratioP2;P2;SDS_P1;SDS_P2;PMS_P1;PMS_P2;Temp;Humidity;BMP_temperature;BMP_pressure;BME280_temperature;BME280_humidity;BME280_pressure;Samples;Min_cycle;Max_cycle;Signal;HPM_P1;HPM_P2
2022/04/16 00:01:52;;;;;;;4.03;2.70;;;;;;;11.61;54.03;101740.06;4038950;29;20033;-58
2022/04/16 00:03:56;;;;;;;4.65;2.60;;;;;;;11.53;53.72;101745.03;4023332;29;20105;-58
2022/04/16 00:05:59;;;;;;;3.38;2.47;;;;;;;11.50;54.53;101740.59;4024592;29;20474;-59
2022/04/16 00:08:09;;;;;;;4.93;2.42;;;;;;;11.56;53.67;101741.66;4022935;29;20072;-59
2022/04/16 00:10:12;;;;;;;4.22;2.70;;;;;;;11.48;54.38;101737.09;4033623;29;20041;-58
2022/04/16 00:12:15;;;;;;;3.38;2.60;;;;;;;11.60;54.63;101738.31;4034566;29;20045;-58
2022/04/16 00:14:19;;;;;;;3.47;2.33;;;;;;;11.49;54.10;101733.66;4024347;29;20065;-58
2022/04/16 00:16:22;;;;;;;3.97;2.65;;;;;;;11.57;53.69;101735.63;4038405;29;20436;-58
2022/04/16 00:18:25;;;;;;;3.35;2.45;;;;;;;11.49;54.65;101732.75;4023992;29;20049;-59
2022/04/16 00:20:29;;;;;;;4.18;2.30;;;;;;;11.60;54.22;101735.72;4024275;29;20403;-59
2022/04/16 00:22:32;;;;;;;4.03;3.00;;;;;;;11.58;54.47;101734.75;4022938;29;20091;-59
2022/04/16 00:24:37;;;;;;;4.68;2.53;;;;;;;11.40;53.81;101733.34;4038486;29;20083;-59
2022/04/16 00:26:41;;;;;;;3.17;2.30;;;;;;;11.34;54.88;101739.25;4023890;29;20074;-59
2022/04/16 00:28:44;;;;;;;4.53;2.72;;;;;;;11.39;54.56;101731.59;4038414;29;20037;-58
2022/04/16 00:30:47;;;;;;;9.60;2.63;;;;;;;11.32;54.71;101743.53;4024326;29;20052;-58
2022/04/16 00:32:54;;;;;;;2.85;2.42;;;;;;;11.32;55.03;101734.84;4038243;29;20116;-59
2022/04/16 00:34:57;;;;;;;4.53;2.53;;;;;;;11.42;54.09;101736.00;4032246;29;20044;-59
2022/04/16 00:37:00;;;;;;;3.83;2.70;;;;;;;11.33;54.90;101736.59;4029932;29;20453;-59
2022/04/16 00:39:03;;;;;;;3.03;2.30;;;;;;;11.32;54.56;101745.25;4024091;29;20492;-58
2022/04/16 00:41:08;;;;;;;4.78;2.65;;;;;;;11.24;54.61;101744.13;4033734;29;20041;-58
2022/04/16 00:43:21;;;;;;;5.10;2.90;;;;;;;11.23;54.95;101745.84;4034286;29;20040;-59
2022/04/16 00:45:25;;;;;;;4.18;2.92;;;;;;;11.22;54.84;101738.00;4038340;29;20124;-59
2022/04/16 00:47:28;;;;;;;3.83;2.53;;;;;;;11.34;54.96;101740.97;4023637;29;20961;-59
2022/04/16 00:49:31;;;;;;;5.63;2.83;;;;;;;11.28;54.84;101741.66;4028160;29;20049;-59
2022/04/16 00:51:36;;;;;;;4.35;2.30;;;;;;;11.31;54.67;101741.75;4029939;29;20033;-59
2022/04/16 00:53:39;;;;;;;4.85;3.00;;;;;;;11.28;55.18;101743.38;4034101;29;20065;-59
2022/04/16 00:55:42;;;;;;;4.85;3.20;;;;;;;11.20;55.04;101737.03;4034007;29;20522;-58
2022/04/16 00:57:46;;;;;;;4.07;2.53;;;;;;;11.17;54.94;101730.91;4019738;29;20052;-58
2022/04/16 00:59:49;;;;;;;4.22;2.90;;;;;;;11.20;55.76;101742.25;4026142;29;20068;-58
2022/04/16 01:01:52;;;;;;;3.65;2.83;;;;;;;11.23;55.17;101745.84;4023806;29;20034;-59
2022/04/16 01:03:55;;;;;;;3.38;2.67;;;;;;;11.16;55.91;101744.75;4023732;29;20094;-59
2022/04/16 01:05:58;;;;;;;5.45;2.90;;;;;;;11.20;55.50;101750.06;4023697;29;20421;-59
2022/04/16 01:08:02;;;;;;;4.32;2.80;;;;;;;11.20;55.39;101742.25;4023303;29;20518;-58
2022/04/16 01:10:06;;;;;;;4.67;3.17;;;;;;;11.26;55.29;101750.28;4023967;29;20721;-59
2022/04/16 01:12:09;;;;;;;4.13;2.90;;;;;;;11.17;55.21;101749.13;4032824;29;20559;-59
2022/04/16 01:14:17;;;;;;;4.93;3.15;;;;;;;11.11;55.14;101750.63;4034076;29;20487;-58
2022/04/16 01:16:20;;;;;;;4.13;3.13;;;;;;;11.08;55.19;101751.44;4033743;29;20041;-59
2022/04/16 01:18:23;;;;;;;4.95;3.50;;;;;;;11.11;55.86;101756.75;4023415;29;20516;-59
2022/04/16 01:20:26;;;;;;;7.43;3.50;;;;;;;11.18;55.39;101748.31;4023487;29;20515;-59
2022/04/16 01:22:30;;;;;;;5.15;3.33;;;;;;;11.21;54.82;101757.03;4037579;29;20446;-59
2022/04/16 01:24:34;;;;;;;4.22;3.03;;;;;;;11.20;54.71;101757.88;4023500;29;20045;-59
2022/04/16 01:26:38;;;;;;;4.10;3.38;;;;;;;11.15;54.80;101752.50;4028356;29;20137;-59
2022/04/16 01:28:41;;;;;;;4.40;3.13;;;;;;;11.05;55.16;101756.53;4030076;29;20500;-59
2022/04/16 01:30:46;;;;;;;4.10;2.90;;;;;;;10.90;55.57;101750.81;4010109;29;20559;-59
2022/04/16 01:32:49;;;;;;;3.65;2.75;;;;;;;10.92;56.06;101752.66;4031088;29;20411;-58
2022/04/16 01:34:52;;;;;;;7.28;3.45;;;;;;;10.89;56.08;101749.03;4033585;29;20416;-59
2022/04/16 01:36:57;;;;;;;4.72;2.90;;;;;;;10.94;56.16;101750.97;4033362;29;20519;-60
2022/04/16 01:39:02;;;;;;;3.63;2.80;;;;;;;10.91;55.88;101755.22;4033534;29;20408;-61
2022/04/16 01:41:05;;;;;;;4.07;2.80;;;;;;;10.81;56.30;101756.59;4033447;29;20064;-60
2022/04/16 01:43:08;;;;;;;4.47;2.90;;;;;;;10.76;56.76;101756.44;4033478;29;20492;-59
2022/04/16 01:45:18;;;;;;;4.80;3.30;;;;;;;10.78;56.41;101759.09;4033481;29;20132;-59
2022/04/16 01:47:21;;;;;;;4.68;3.22;;;;;;;10.72;56.59;101757.16;4022735;29;20068;-59
2022/04/16 01:49:26;;;;;;;4.45;3.03;;;;;;;10.73;56.23;101752.84;4028849;29;20057;-58
2022/04/16 01:51:29;;;;;;;3.40;2.80;;;;;;;10.70;56.82;101750.13;4034502;29;20062;-59
2022/04/16 01:53:32;;;;;;;5.15;3.05;;;;;;;10.75;56.34;101746.88;4033414;29;20053;-59
2022/04/16 01:55:37;;;;;;;4.10;3.08;;;;;;;10.71;56.92;101745.00;4033549;29;20055;-59
2022/04/16 01:57:40;;;;;;;4.32;3.22;;;;;;;10.70;56.77;101756.22;4033131;29;20132;-59
2022/04/16 01:59:43;;;;;;;4.38;3.08;;;;;;;10.70;56.55;101748.41;4033489;29;20461;-58
2022/04/16 02:01:46;;;;;;;3.83;3.10;;;;;;;10.71;56.32;101747.59;4037394;29;20492;-59
2022/04/16 02:03:49;;;;;;;5.65;3.65;;;;;;;10.78;56.30;101749.56;4036653;29;20504;-59
2022/04/16 02:05:52;;;;;;;5.57;3.33;;;;;;;10.71;56.23;101742.38;4036514;29;20492;-59
2022/04/16 02:07:55;;;;;;;5.50;3.25;;;;;;;10.63;57.31;101749.03;4037410;29;20393;-59
2022/04/16 02:09:58;;;;;;;5.95;2.92;;;;;;;10.67;57.03;101745.72;4035270;29;20483;-58
2022/04/16 02:12:03;;;;;;;4.00;2.90;;;;;;;10.69;56.80;101751.88;4035192;29;20558;-59
2022/04/16 02:14:06;;;;;;;;;;;;;;;10.54;56.87;101739.22;4038251;29;20053;-59
2022/04/16 02:16:09;;;;;;;3.83;2.97;;;;;;;10.57;57.30;101746.22;4036418;29;20224;-59
2022/04/16 02:18:12;;;;;;;3.95;2.83;;;;;;;10.61;56.77;101751.59;4035791;29;20555;-59
2022/04/16 02:20:15;;;;;;;7.57;3.10;;;;;;;10.51;57.01;101741.69;4026102;29;20124;-59
2022/04/16 02:22:18;;;;;;;6.40;3.08;;;;;;;10.53;57.12;101744.34;4035176;29;20539;-58
2022/04/16 02:24:21;;;;;;;4.22;2.90;;;;;;;10.48;57.79;101746.78;4036178;29;20488;-59
2022/04/16 02:26:23;;;;;;;4.10;2.60;;;;;;;10.52;57.29;101747.78;4036020;29;20033;-59
2022/04/16 02:28:28;;;;;;;3.97;2.78;;;;;;;10.49;57.95;101748.56;4024401;29;20480;-59
2022/04/16 02:30:31;;;;;;;3.17;2.65;;;;;;;10.48;57.49;101750.28;4040057;29;20132;-59
2022/04/16 02:32:38;;;;;;;6.82;3.40;;;;;;;10.53;57.56;101745.25;4025767;29;20484;-59
2022/04/16 02:34:40;;;;;;;4.07;2.70;;;;;;;10.54;58.08;101751.31;4025699;29;20043;-59
2022/04/16 02:36:43;;;;;;;5.78;3.05;;;;;;;10.58;57.31;101748.00;4025331;29;20037;-59
2022/04/16 02:38:47;;;;;;;3.53;2.53;;;;;;;10.64;57.54;101735.19;4039673;29;20332;-58
2022/04/16 02:40:50;;;;;;;4.37;2.77;;;;;;;10.64;57.54;101740.41;4024525;29;20061;-58
2022/04/16 02:42:53;;;;;;;3.40;2.47;;;;;;;10.62;57.99;101750.75;4025865;29;20128;-59
2022/04/16 02:47:18;;;;;;;3.28;2.53;;;;;;;10.70;57.45;101737.13;4024182;29;20457;-59
2022/04/16 02:49:21;;;;;;;4.10;2.58;;;;;;;10.73;57.89;101730.34;4020730;29;20156;-59
2022/04/16 02:51:24;;;;;;;3.72;2.83;;;;;;;10.85;56.99;101736.75;4025525;29;20112;-58
2022/04/16 02:53:27;;;;;;;3.50;2.50;;;;;;;10.87;57.15;101733.38;4021587;29;20075;-59
2022/04/16 02:55:30;;;;;;;3.58;2.40;;;;;;;10.96;56.52;101743.22;4025398;29;20522;-59
2022/04/16 02:57:33;;;;;;;3.67;2.67;;;;;;;10.86;57.34;101735.94;4025100;29;20128;-60
2022/04/16 02:59:36;;;;;;;4.68;2.67;;;;;;;10.87;56.72;101741.19;4025397;29;20136;-59
2022/04/16 03:01:40;;;;;;;3.92;2.80;;;;;;;10.93;57.12;101741.41;4025341;29;20033;-59
2022/04/16 03:03:43;;;;;;;5.90;2.70;;;;;;;10.93;56.35;101740.53;4025409;29;20041;-59
2022/04/16 03:05:47;;;;;;;5.32;2.58;;;;;;;10.95;57.10;101742.34;4025264;29;20047;-59
2022/04/16 03:07:50;;;;;;;4.80;2.38;;;;;;;11.01;56.52;101744.28;4024921;29;20453;-59
2022/04/16 03:09:53;;;;;;;3.35;2.60;;;;;;;11.03;56.14;101742.59;4039442;29;20403;-59
2022/04/16 03:11:56;;;;;;;3.30;2.53;;;;;;;11.08;56.03;101741.03;4024972;29;20108;-59
2022/04/16 03:17:31;;;;;;;4.00;2.63;;;;;;;11.11;55.73;101748.03;4039456;29;20037;-59
2022/04/16 03:18:45;;;;;;;6.05;2.45;;;;;;;11.01;55.96;101752.09;4028296;29;20079;-59
2022/04/16 03:20:49;;;;;;;;;;;;;;;10.81;57.08;101756.59;4037241;29;20496;-59
2022/04/16 03:22:52;;;;;;;3.63;2.40;;;;;;;10.85;56.82;101762.78;4035474;29;20290;-59
2022/04/16 03:24:55;;;;;;;4.65;2.97;;;;;;;10.91;57.08;101769.09;4035352;29;20061;-59
2022/04/16 03:26:58;;;;;;;3.83;2.72;;;;;;;10.95;56.55;101764.84;4034920;29;20056;-59
2022/04/16 03:29:01;;;;;;;5.15;2.70;;;;;;;10.90;56.47;101750.81;4035182;29;20472;-59
2022/04/16 03:31:05;;;;;;;5.15;2.97;;;;;;;10.90;56.94;101756.03;4036701;29;20040;-59
2022/04/16 03:33:08;;;;;;;3.93;3.07;;;;;;;10.93;56.67;101757.00;4049385;29;20104;-58
2022/04/16 03:35:13;;;;;;;6.63;3.17;;;;;;;10.95;57.09;101759.66;4035201;29;20476;-59
2022/04/16 03:37:16;;;;;;;3.38;2.67;;;;;;;10.93;56.99;101761.34;4034869;29;20037;-59
2022/04/16 03:39:20;;;;;;;4.50;2.60;;;;;;;10.88;56.86;101752.47;4034881;29;20468;-59
2022/04/16 03:41:23;;;;;;;4.25;2.60;;;;;;;11.00;56.28;101753.78;4035084;29;20037;-59
2022/04/16 03:43:29;;;;;;;5.03;2.67;;;;;;;11.09;55.96;101753.19;4035029;29;20493;-59
2022/04/16 03:45:33;;;;;;;3.95;2.70;;;;;;;11.02;56.17;101758.16;4024788;29;20078;-58
2022/04/16 03:47:36;;;;;;;3.78;2.90;;;;;;;10.99;56.22;101764.13;4024462;29;20038;-58
2022/04/16 03:49:39;;;;;;;4.93;2.78;;;;;;;10.93;56.96;101749.19;4024709;29;20052;-58
2022/04/16 03:51:44;;;;;;;2.92;2.40;;;;;;;10.99;56.27;101751.13;4023357;29;20050;-59
2022/04/16 03:53:46;;;;;;;3.42;2.60;;;;;;;11.06;56.75;101757.44;4024558;29;20093;-58
2022/04/16 04:00:32;;;;;;;4.10;2.80;;;;;;;10.98;56.68;101757.16;4023328;29;20128;-58
2022/04/16 04:02:36;;;;;;;4.32;2.90;;;;;;;10.98;57.10;101762.34;4023146;29;20458;-59
2022/04/16 04:04:40;;;;;;;4.43;2.47;;;;;;;10.98;56.54;101760.66;4029652;29;20048;-58
2022/04/16 04:06:44;;;;;;;4.80;2.83;;;;;;;11.09;56.97;101762.72;4035688;29;20075;-58
2022/04/16 04:08:47;;;;;;;3.80;2.70;;;;;;;11.14;55.84;101762.06;4033382;29;20049;-59
2022/04/16 04:10:50;;;;;;;5.00;2.97;;;;;;;11.08;56.12;101758.34;4034566;29;20128;-59
2022/04/16 04:12:53;;;;;;;4.85;3.10;;;;;;;11.03;56.55;101763.41;4034567;29;20106;-58
2022/04/16 04:14:56;;;;;;;3.88;2.90;;;;;;;11.07;56.90;101762.69;4034481;29;20100;-59
2022/04/16 04:16:59;;;;;;;4.75;2.88;;;;;;;11.08;56.42;101767.06;4034054;29;20036;-59
2022/04/16 04:19:02;;;;;;;3.97;3.22;;;;;;;11.13;56.39;101770.69;4034492;29;20072;-58
2022/04/16 04:21:05;;;;;;;4.70;3.00;;;;;;;11.16;57.00;101777.72;4035769;29;20095;-59
2022/04/16 04:23:09;;;;;;;3.58;2.90;;;;;;;11.20;56.10;101771.78;4034060;29;20037;-58
2022/04/16 04:25:12;;;;;;;3.80;2.95;;;;;;;11.17;56.43;101777.78;4034459;29;20045;-59
2022/04/16 04:27:15;;;;;;;4.45;3.30;;;;;;;11.20;56.15;101770.88;4035356;29;20063;-59
2022/04/16 04:29:18;;;;;;;3.83;2.97;;;;;;;11.16;56.19;101776.00;4034261;29;20041;-58
2022/04/16 04:31:21;;;;;;;4.50;3.20;;;;;;;11.10;56.29;101770.59;4032985;29;20067;-59
2022/04/16 04:33:30;;;;;;;3.88;3.03;;;;;;;11.20;55.89;101771.78;4034998;29;20139;-59
2022/04/16 04:35:33;;;;;;;6.22;3.20;;;;;;;11.11;56.26;101772.38;4024003;29;20044;-58
2022/04/16 04:37:36;;;;;;;5.78;3.30;;;;;;;11.09;56.34;101779.22;4023697;29;20045;-58
2022/04/16 04:39:40;;;;;;;4.25;2.88;;;;;;;11.07;56.25;101780.91;4023842;29;20049;-59
2022/04/16 04:41:43;;;;;;;4.65;3.15;;;;;;;11.04;56.69;101780.81;4023937;29;20139;-59
2022/04/16 04:43:46;;;;;;;4.20;3.20;;;;;;;11.05;57.13;101784.28;4023896;29;20041;-59
2022/04/16 04:45:49;;;;;;;3.80;2.80;;;;;;;11.08;56.37;101784.38;4023934;29;20049;-58
2022/04/16 04:47:52;;;;;;;4.72;3.45;;;;;;;11.02;56.64;101777.25;4028709;29;20049;-59
2022/04/16 04:49:55;;;;;;;5.65;3.47;;;;;;;10.98;57.08;101783.16;4023981;29;20154;-59
2022/04/16 04:51:58;;;;;;;6.55;3.78;;;;;;;11.04;57.64;101788.59;4023664;29;20061;-59
2022/04/16 04:54:01;;;;;;;6.38;3.05;;;;;;;10.99;57.05;101779.75;4023670;29;20041;-59
2022/04/16 04:56:06;;;;;;;5.40;3.80;;;;;;;11.01;57.56;101791.13;4037838;29;20037;-59
2022/04/16 04:58:08;;;;;;;5.72;3.70;;;;;;;11.06;56.96;101788.66;4023245;29;20137;-59
2022/04/16 05:00:14;;;;;;;4.95;3.55;;;;;;;11.08;57.70;101790.50;4023709;29;20038;-59
2022/04/16 05:02:19;;;;;;;4.38;3.28;;;;;;;11.08;57.81;101793.09;4023608;29;20050;-59
2022/04/16 05:04:22;;;;;;;6.63;4.07;;;;;;;11.19;57.29;101788.22;4023556;29;20033;-58
2022/04/16 05:06:24;;;;;;;5.05;3.38;;;;;;;11.14;57.64;101793.28;4023491;29;20093;-59
2022/04/16 05:08:27;;;;;;;6.15;4.28;;;;;;;11.13;56.60;101786.31;4033640;29;20124;-59
2022/04/16 05:10:30;;;;;;;5.97;3.88;;;;;;;11.16;57.66;101796.81;4033935;29;20049;-58
2022/04/16 05:12:35;;;;;;;6.50;3.70;;;;;;;11.16;57.12;101796.81;4024129;29;20089;-59
2022/04/16 05:14:38;;;;;;;6.63;3.28;;;;;;;11.23;56.62;101802.22;4033657;29;20777;-59
2022/04/16 05:16:40;;;;;;;6.70;3.78;;;;;;;11.11;57.43;101803.59;4033446;29;20128;-59
2022/04/16 05:18:43;;;;;;;4.82;3.33;;;;;;;11.23;57.02;101803.13;4033822;29;20049;-59
2022/04/16 05:20:46;;;;;;;6.97;3.90;;;;;;;11.17;56.74;101803.78;4034150;29;20044;-58
2022/04/16 05:22:49;;;;;;;5.03;3.28;;;;;;;11.15;57.77;101805.44;4033816;29;20041;-59
2022/04/16 05:24:52;;;;;;;5.32;3.80;;;;;;;11.28;57.30;101800.66;4032778;29;20033;-58
2022/04/16 05:26:55;;;;;;;4.15;3.50;;;;;;;11.22;57.36;101801.34;4029659;29;20435;-59
2022/04/16 05:28:59;;;;;;;7.75;4.22;;;;;;;11.26;57.23;101797.13;4033774;29;20177;-59
2022/04/16 05:31:03;;;;;;;5.03;3.47;;;;;;;11.28;57.32;101800.66;4032845;29;20045;-59
2022/04/16 05:33:16;;;;;;;6.65;3.67;;;;;;;11.35;56.73;101805.25;4033599;29;20040;-59
2022/04/16 05:35:18;;;;;;;5.75;3.60;;;;;;;11.32;56.73;101807.75;4035940;29;20071;-59
2022/04/16 05:37:21;;;;;;;6.20;4.00;;;;;;;11.39;56.77;101803.59;4033432;29;20128;-59
2022/04/16 05:39:23;;;;;;;6.07;4.15;;;;;;;11.34;56.80;101806.06;4034844;29;20045;-59
2022/04/16 05:41:26;;;;;;;8.13;3.92;;;;;;;11.39;56.31;101806.22;4022237;29;20042;-58
2022/04/16 05:43:29;;;;;;;6.45;3.50;;;;;;;11.33;56.58;101802.59;4022975;29;20049;-59
2022/04/16 05:45:34;;;;;;;5.07;3.33;;;;;;;11.43;56.16;101806.34;4032550;29;20085;-58
2022/04/16 05:47:37;;;;;;;7.03;3.92;;;;;;;11.30;57.05;101812.91;4032525;29;20041;-58
2022/04/16 05:49:40;;;;;;;6.68;4.22;;;;;;;11.34;56.82;101817.34;4027593;29;20053;-58
2022/04/16 05:51:43;;;;;;;9.18;3.78;;;;;;;11.42;56.73;101814.13;4028794;29;20049;-58
2022/04/16 05:53:47;;;;;;;5.57;3.67;;;;;;;11.33;56.48;101819.91;4024957;29;20054;-59
2022/04/16 05:55:51;;;;;;;5.60;3.72;;;;;;;11.32;57.48;101821.63;4024910;29;20049;-58
2022/04/16 05:57:54;;;;;;;6.80;4.18;;;;;;;11.44;56.73;101821.16;4037678;29;20040;-58
2022/04/16 05:59:57;;;;;;;6.63;3.72;;;;;;;11.50;56.61;101826.56;4012241;29;20049;-58
2022/04/16 06:02:02;;;;;;;4.97;3.58;;;;;;;11.52;56.04;101827.50;4030722;29;20057;-59
2022/04/16 06:04:05;;;;;;;6.07;3.75;;;;;;;11.45;57.08;101824.66;4033421;29;20052;-58
2022/04/16 06:06:08;;;;;;;7.35;4.30;;;;;;;11.33;57.18;101830.31;4034794;29;20104;-59
2022/04/16 06:08:11;;;;;;;7.15;4.13;;;;;;;11.42;57.39;101830.66;4023604;29;20041;-58
2022/04/16 06:10:14;;;;;;;5.03;3.72;;;;;;;11.32;57.31;101836.38;4032099;29;20043;-58
2022/04/16 06:12:16;;;;;;;5.78;3.80;;;;;;;11.38;56.97;101841.78;4027385;29;20057;-58
2022/04/16 06:14:19;;;;;;;5.63;3.60;;;;;;;11.41;57.35;101844.50;4037119;29;20108;-59
2022/04/16 06:16:22;;;;;;;8.27;3.85;;;;;;;11.46;56.98;101837.72;4033589;29;20062;-58
2022/04/16 06:18:27;;;;;;;5.97;3.92;;;;;;;11.40;57.38;101842.72;4031623;29;20045;-58
2022/04/16 06:20:30;;;;;;;4.97;3.97;;;;;;;11.38;57.68;101839.19;4023044;29;20136;-58
2022/04/16 06:22:33;;;;;;;5.90;3.90;;;;;;;11.44;57.28;101844.59;4025598;29;20136;-61
2022/04/16 06:24:36;;;;;;;7.20;3.67;;;;;;;11.53;57.24;101844.00;4032507;29;20052;-59
2022/04/16 06:26:41;;;;;;;4.85;3.45;;;;;;;11.63;56.55;101855.63;4023262;29;20050;-59
2022/04/16 06:28:43;;;;;;;4.60;3.25;;;;;;;11.67;56.50;101847.06;4025392;29;20215;-58
2022/04/16 06:30:46;;;;;;;6.28;3.55;;;;;;;11.69;55.98;101845.38;4033128;29;20057;-59
2022/04/16 06:32:49;;;;;;;5.97;3.90;;;;;;;11.69;56.05;101845.38;4032932;29;20050;-59
2022/04/16 06:34:53;;;;;;;4.65;3.45;;;;;;;11.79;56.38;101849.19;4032950;29;20041;-58
2022/04/16 06:36:56;;;;;;;4.68;3.25;;;;;;;11.68;56.10;101854.03;4032719;29;20037;-58
2022/04/16 06:39:00;;;;;;;4.43;3.25;;;;;;;11.78;56.71;101856.09;4032885;29;20041;-58
2022/04/16 06:41:08;;;;;;;5.00;3.60;;;;;;;11.86;56.40;101849.41;4033014;29;20041;-58
2022/04/16 06:43:12;;;;;;;3.80;3.08;;;;;;;11.90;56.44;101853.00;4033132;29;20464;-58
2022/04/16 06:45:15;;;;;;;5.28;3.00;;;;;;;11.99;55.73;101860.25;4034549;29;20044;-58
2022/04/16 06:47:18;;;;;;;5.25;2.83;;;;;;;12.12;55.16;101857.19;4033104;29;20048;-58
2022/04/16 06:49:21;;;;;;;6.50;3.92;;;;;;;12.10;55.25;101864.06;4035963;29;20044;-58
2022/04/16 06:51:25;;;;;;;4.65;3.10;;;;;;;11.99;54.61;101855.94;4035830;29;20045;-58
2022/04/16 06:53:28;;;;;;;5.07;3.10;;;;;;;12.14;53.73;101865.06;4035968;29;20037;-58
2022/04/16 06:55:31;;;;;;;5.90;3.25;;;;;;;12.09;53.95;101866.63;4035828;29;20068;-59
2022/04/16 06:57:34;;;;;;;4.85;3.10;;;;;;;12.13;53.89;101861.53;4023986;29;20097;-58
2022/04/16 06:59:38;;;;;;;4.22;2.28;;;;;;;12.17;53.36;101866.03;4035749;29;20097;-59
2022/04/16 07:01:41;;;;;;;6.40;3.53;;;;;;;12.16;53.73;101865.97;4049975;29;20060;-58
2022/04/16 07:03:44;;;;;;;6.45;3.58;;;;;;;12.22;52.90;101876.59;4024227;29;20048;-58
2022/04/16 07:05:47;;;;;;;6.45;3.13;;;;;;;12.20;53.05;101879.16;4028703;29;20113;-58
2022/04/16 07:07:51;;;;;;;3.75;2.78;;;;;;;12.24;52.72;101872.31;4030045;29;20049;-58
2022/04/16 07:09:54;;;;;;;5.68;2.92;;;;;;;12.28;52.81;101875.88;4036983;29;20089;-58
2022/04/16 07:11:57;;;;;;;6.55;3.10;;;;;;;12.29;52.97;101872.44;4037032;29;20051;-58
2022/04/16 07:14:02;;;;;;;4.97;2.97;;;;;;;12.33;52.57;101871.72;4034424;29;20041;-58
2022/04/16 07:16:05;;;;;;;4.45;3.17;;;;;;;12.25;53.40;101870.59;4035281;29;20069;-58
2022/04/16 07:18:08;;;;;;;4.85;2.47;;;;;;;12.15;54.20;101866.81;4035545;29;20041;-58
2022/04/16 07:20:11;;;;;;;4.15;2.45;;;;;;;12.17;54.41;101871.22;4035443;29;20069;-58
2022/04/16 07:22:14;;;;;;;5.45;3.33;;;;;;;12.18;54.28;101877.34;4035395;29;20128;-58
2022/04/16 07:24:18;;;;;;;3.78;2.67;;;;;;;12.48;53.24;101876.47;4035431;29;20541;-58
2022/04/16 07:26:21;;;;;;;4.72;2.78;;;;;;;12.57;52.32;101866.31;4035221;29;20045;-58
2022/04/16 07:28:24;;;;;;;4.00;2.72;;;;;;;12.43;53.06;101878.97;4034987;29;20044;-58
2022/04/16 07:30:27;;;;;;;6.07;2.83;;;;;;;12.71;51.98;101883.25;4035544;29;20037;-58
2022/04/16 07:32:30;;;;;;;3.72;2.70;;;;;;;12.85;50.83;101874.91;4032283;29;20404;-59
2022/04/16 07:34:33;;;;;;;6.70;2.90;;;;;;;12.72;51.42;101881.53;4026333;29;20045;-58
2022/04/16 07:36:36;;;;;;;4.32;2.88;;;;;;;12.76;50.63;101878.16;4026107;29;20036;-59
2022/04/16 07:38:43;;;;;;;3.53;2.55;;;;;;;12.64;51.50;101877.81;4024888;29;20057;-58
2022/04/16 07:40:47;;;;;;;4.30;2.72;;;;;;;12.93;51.17;101887.31;4036368;29;20041;-58
2022/04/16 07:42:50;;;;;;;3.95;2.50;;;;;;;13.02;50.78;101889.31;4048495;29;20048;-58
2022/04/16 07:44:53;;;;;;;6.45;2.90;;;;;;;13.09;49.95;101887.75;4024848;29;20045;-60
2022/04/16 07:46:55;;;;;;;3.50;2.20;;;;;;;12.98;50.48;101883.97;4024480;29;20057;-60
2022/04/16 07:48:59;;;;;;;3.47;2.58;;;;;;;12.90;50.99;101883.75;4024733;29;20044;-60
2022/04/16 07:51:01;;;;;;;4.75;2.58;;;;;;;13.01;51.23;101884.94;4024868;29;20167;-60
2022/04/16 07:53:06;;;;;;;4.30;2.60;;;;;;;13.06;50.99;101887.69;4031680;29;20048;-60
2022/04/16 07:55:09;;;;;;;4.53;3.00;;;;;;;13.23;49.33;101883.78;4024629;29;20129;-60
2022/04/16 07:57:15;;;;;;;4.15;2.58;;;;;;;13.05;49.50;101885.91;4024273;29;20073;-60
2022/04/16 07:59:17;;;;;;;5.75;2.50;;;;;;;12.96;49.92;101890.88;4037874;29;20060;-60
2022/04/16 08:01:21;;;;;;;4.72;2.45;;;;;;;13.03;49.54;101895.44;4038892;29;20045;-60
2022/04/16 08:03:24;;;;;;;6.70;2.75;;;;;;;13.13;49.68;101889.63;4026054;29;20516;-60
2022/04/16 08:05:27;;;;;;;4.38;2.65;;;;;;;13.25;47.90;101904.72;4023485;29;20044;-61
2022/04/16 08:07:32;;;;;;;3.27;2.30;;;;;;;13.17;47.85;101894.09;4031954;29;20088;-71
2022/04/16 08:09:35;;;;;;;3.50;2.15;;;;;;;13.27;47.39;101898.69;4025463;29;20049;-70
2022/04/16 08:11:38;;;;;;;3.45;2.55;;;;;;;13.28;47.48;101899.56;4018120;29;20054;-70
2022/04/16 08:13:42;;;;;;;2.80;2.03;;;;;;;13.43;46.95;101901.72;4028410;29;20056;-69
2022/04/16 08:15:45;;;;;;;2.50;1.90;;;;;;;13.43;47.78;101906.94;4035842;29;20132;-68
2022/04/16 08:17:48;;;;;;;2.97;2.03;;;;;;;13.51;47.12;101901.94;4030798;29;20056;-61
2022/04/16 08:19:51;;;;;;;3.88;2.38;;;;;;;13.67;46.24;101916.25;4035434;29;20078;-69
2022/04/16 08:21:54;;;;;;;3.17;1.90;;;;;;;13.59;46.16;101906.53;4026702;29;20101;-69
2022/04/16 08:24:04;;;;;;;3.70;2.40;;;;;;;13.68;45.01;101907.56;4032847;29;20044;-65
2022/04/16 08:26:07;;;;;;;2.50;1.92;;;;;;;13.54;45.60;101904.63;4028079;29;20037;-65
2022/04/16 08:28:10;;;;;;;1.88;1.63;;;;;;;13.59;45.84;101906.53;4026778;29;20070;-65
2022/04/16 08:30:16;;;;;;;4.00;2.10;;;;;;;13.67;45.49;101897.97;4041542;29;20093;-62
2022/04/16 08:32:18;;;;;;;3.60;1.83;;;;;;;13.57;45.52;101902.97;4028745;29;20044;-62
2022/04/16 08:34:25;;;;;;;2.85;1.80;;;;;;;13.57;46.37;101910.81;4051227;29;20424;-63
2022/04/16 08:36:28;;;;;;;2.47;1.80;;;;;;;13.69;45.76;101906.75;4036042;29;20037;-75
2022/04/16 08:38:31;;;;;;;2.58;1.92;;;;;;;13.59;46.81;101906.53;4048177;29;20044;-74
2022/04/16 08:40:35;;;;;;;3.15;2.53;;;;;;;13.86;46.26;101910.66;4050686;29;20044;-75
2022/04/16 08:42:39;;;;;;;4.05;2.63;;;;;;;13.91;46.15;101901.16;4023506;29;20056;-75
2022/04/16 08:44:42;;;;;;;4.00;2.47;;;;;;;13.92;45.39;101908.16;4020753;29;20296;-73
2022/04/16 08:46:47;;;;;;;2.75;1.95;;;;;;;13.93;45.99;101916.88;4025425;29;20060;-74
2022/04/16 08:48:50;;;;;;;3.75;1.85;;;;;;;13.93;45.03;101917.78;4023283;29;20050;-75
2022/04/16 08:50:54;;;;;;;3.85;2.33;;;;;;;13.70;45.34;101913.75;4032699;29;20422;-70
2022/04/16 08:52:58;;;;;;;4.38;2.20;;;;;;;13.49;46.13;101914.06;4035412;29;20045;-70
2022/04/16 08:55:03;;;;;;;2.33;1.73;;;;;;;13.49;45.76;101909.75;4026515;29;20047;-71
2022/04/16 08:57:06;;;;;;;2.58;1.90;;;;;;;13.43;46.42;101918.31;4026675;29;20041;-71
2022/04/16 08:59:09;;;;;;;3.45;2.03;;;;;;;13.66;45.66;101917.13;4019801;29;20041;-70
2022/04/16 09:01:12;;;;;;;4.75;2.17;;;;;;;13.52;46.22;101917.66;4027270;29;20045;-71
2022/04/16 09:03:17;;;;;;;3.05;2.65;;;;;;;13.57;45.81;101918.63;4022583;29;20045;-71
2022/04/16 09:05:20;;;;;;;2.38;1.63;;;;;;;13.47;45.50;101916.63;4024759;29;20098;-71
2022/04/16 09:07:23;;;;;;;3.28;2.10;;;;;;;13.39;45.32;101918.16;4026741;29;20041;-71
2022/04/16 09:09:27;;;;;;;2.90;2.00;;;;;;;13.37;45.73;101912.91;4023805;29;20597;-71
2022/04/16 09:11:30;;;;;;;2.60;1.92;;;;;;;13.28;46.39;101916.13;4023625;29;20057;-71
2022/04/16 09:13:33;;;;;;;3.22;2.10;;;;;;;13.42;45.59;101919.13;4040019;29;20519;-71
2022/04/16 09:15:37;;;;;;;8.07;2.03;;;;;;;13.30;46.12;101918.78;4023563;29;20045;-69
2022/04/16 09:17:41;;;;;;;3.50;2.13;;;;;;;13.31;45.67;101924.91;4016773;29;20140;-71
2022/04/16 09:19:53;;;;;;;3.00;2.10;;;;;;;13.27;46.10;101922.22;4028772;29;20041;-72
2022/04/16 09:21:58;;;;;;;2.63;1.88;;;;;;;13.30;45.68;101928.34;4031596;29;20080;-71
2022/04/16 09:24:03;;;;;;;2.42;1.60;;;;;;;13.43;46.01;101925.25;4032563;29;20040;-70
2022/04/16 09:26:07;;;;;;;4.57;2.15;;;;;;;13.87;44.55;101930.72;4033644;29;20040;-72
2022/04/16 09:28:10;;;;;;;2.92;2.15;;;;;;;13.80;45.21;101928.81;4033312;29;20045;-71
2022/04/16 09:30:13;;;;;;;3.05;1.60;;;;;;;13.97;45.51;101929.19;4035123;29;20037;-72
2022/04/16 09:32:24;;;;;;;3.67;2.03;;;;;;;14.24;43.12;101939.41;4047903;29;20184;-72
2022/04/16 09:34:27;;;;;;;2.50;1.98;;;;;;;14.17;43.06;101932.28;4033588;29;20041;-72
2022/04/16 09:36:40;;;;;;;5.15;2.47;;;;;;;13.99;43.74;101937.97;4032976;29;20435;-72
2022/04/16 09:38:43;;;;;;;2.88;2.03;;;;;;;14.21;44.10;101933.25;4033559;29;20407;-72
2022/04/16 09:40:47;;;;;;;3.20;1.77;;;;;;;14.28;43.52;101927.28;4031464;29;20132;-73
2022/04/16 09:42:53;;;;;;;3.65;2.08;;;;;;;14.43;43.23;101935.47;4033287;29;20049;-72
2022/04/16 09:44:57;;;;;;;5.93;2.30;;;;;;;14.41;43.63;101925.81;4027729;29;20041;-72
2022/04/16 09:46:59;;;;;;;2.78;1.98;;;;;;;14.25;44.03;101933.34;4028404;29;20045;-72